Latest Weather Observations for Scherger

IDQ60801

Issued at 3:32 pm EST Sunday 7 February 2016 (issued every 30 minutes, with the page automatically refreshed every 10 minutes)

About weather observations | Map of weather stations | Latest weather observations for QLD | Other Formats
Station Details ID: 027075 Name: SCHERGER RAAF Lat: -12.62 Lon: 142.09 Height: 39.34 m
Data from the previous 72 hours. | See also: Recent months at Scherger
Date/Time
EST
Temp
°C
App
Temp
°C
Dew
Point
Rel
Hum
%
Delta-T
°C
Wind Press
QNH
hPa
Press
MSL
hPa
Rain
since 9 am
mm
Dir
 
Spd
km/h
Gust
km/h
Spd
kts
Gust
kts
07/03:30pm 29.4 33.1 22.6 67 4.6 NNW 7 11 4 6 1005.8 1005.5 0.4
07/03:00pm 29.6 33.1 22.1 64 5.1 NNW 7 13 4 7 1005.9 1005.6 0.4
07/02:30pm 29.0 31.9 22.5 68 4.4 NNW 11 19 6 10 1006.4 1006.1 0.4
07/02:00pm 30.0 33.0 23.4 67 4.6 NW 13 20 7 11 1006.6 1006.3 0.2
07/01:30pm 31.7 36.2 24.6 66 5.0 NW 9 13 5 7 1006.8 1006.5 0.2
07/01:00pm 30.6 34.6 23.8 67 4.7 NW 9 15 5 8 1007.2 1006.9 0.2
07/12:30pm 30.7 34.6 23.6 66 4.9 WNW 9 15 5 8 1007.6 1007.3 0.2
07/12:00pm 30.9 33.5 23.3 64 5.3 WNW 15 26 8 14 1007.9 1007.6 0.2
07/11:30am 31.2 35.4 24.1 66 5.0 NW 9 20 5 11 1008.1 1007.8 0.2
07/11:00am 31.5 37.2 24.4 66 5.0 WNW 2 11 1 6 1008.3 1008.0 0.2
07/10:30am 31.8 37.4 25.4 69 4.5 NW 6 13 3 7 1008.5 1008.2 0.0
07/10:00am 30.5 35.6 24.6 70 4.1 NW 6 13 3 7 1008.7 1008.4 0.0
07/09:30am 30.4 35.7 25.0 73 3.8 N 6 11 3 6 1008.7 1008.4 0.0
07/09:00am 29.5 35.8 25.3 78 3.0 NE 2 7 1 4 1008.9 1008.6 1.2
07/08:30am 28.3 33.2 24.7 81 2.5 NNE 7 11 4 6 1008.9 1008.6 1.2
07/08:00am 27.3 32.4 24.7 86 1.8 NNE 6 9 3 5 1008.7 1008.4 1.2
07/07:30am 26.3 31.1 24.5 90 1.2 NNE 7 11 4 6 1008.5 1008.2 1.2
07/07:00am 25.5 30.5 24.5 94 0.7 NNE 6 9 3 5 1007.8 1007.5 1.2
07/06:30am 25.4 30.3 24.4 94 0.7 NE 6 9 3 5 1007.8 1007.5 1.0
07/06:00am 25.4 31.4 24.2 93 0.8 CALM 0 0 0 0 1007.4 1007.1 1.0
07/05:30am 25.5 30.5 24.5 94 0.7 NE 6 9 3 5 1007.0 1006.7 1.0
07/05:00am 25.6 31.8 24.6 94 0.7 CALM 0 0 0 0 1006.8 1006.5 1.0
07/04:30am 25.6 31.8 24.6 94 0.7 CALM 0 0 0 0 1006.5 1006.2 1.0
07/04:00am 25.7 32.0 24.7 94 0.7 CALM 0 0 0 0 1006.3 1006.0 1.0
07/03:30am 25.7 31.6 24.7 94 0.7 NNE 2 7 1 4 1006.3 1006.0 1.0
07/03:00am 25.6 31.8 24.6 94 0.7 CALM 0 0 0 0 1006.2 1005.9 1.0
07/02:30am 25.6 31.7 24.4 93 0.8 CALM 0 0 0 0 1006.2 1005.9 1.0
07/02:00am 25.6 31.7 24.4 93 0.8 CALM 0 0 0 0 1006.5 1006.2 0.8
07/01:30am 25.7 31.8 24.5 93 0.8 CALM 0 0 0 0 1006.8 1006.5 0.8
07/01:00am 26.0 32.2 24.6 92 1.0 CALM 0 0 0 0 1007.1 1006.8 0.8
07/12:30am 26.1 32.4 24.7 92 1.0 CALM 0 0 0 0 1007.3 1007.0 0.8
07/12:00am 26.2 32.4 24.6 91 1.1 CALM 0 0 0 0 1007.7 1007.4 0.8
 
Date/Time
EST
Temp
°C
App
Temp
°C
Dew
Point
Rel
Hum
%
Delta-T
°C
Wind Press
QNH
hPa
Press
MSL
hPa
Rain
since 9 am
mm
Dir
 
Spd
km/h
Gust
km/h
Spd
kts
Gust
kts
06/11:30pm 26.2 32.4 24.6 91 1.1 CALM 0 0 0 0 1008.0 1007.7 0.8
06/11:00pm 26.2 32.5 24.8 92 1.0 CALM 0 0 0 0 1007.9 1007.6 0.8
06/10:30pm 26.4 32.7 24.8 91 1.1 CALM 0 0 0 0 1007.8 1007.5 0.8
06/10:00pm 26.6 32.8 24.6 89 1.4 CALM 0 0 0 0 1007.8 1007.5 0.8
06/09:30pm 26.7 33.0 24.7 89 1.4 CALM 0 0 0 0 1007.6 1007.3 0.6
06/09:00pm 26.9 33.2 24.7 88 1.5 CALM 0 0 0 0 1007.1 1006.8 0.6
06/08:30pm 27.1 33.2 24.4 85 1.9 CALM 0 0 0 0 1006.6 1006.3 0.6
06/08:00pm 27.9 34.0 24.5 82 2.4 CALM 0 0 0 0 1006.1 1005.8 0.6
06/07:30pm 28.5 33.8 24.3 78 2.9 NW 4 9 2 5 1005.6 1005.3 0.6
06/07:00pm 29.0 34.1 24.1 75 3.4 W 4 9 2 5 1005.2 1004.9 0.6
06/06:30pm 29.7 33.4 23.9 71 4.0 W 11 22 6 12 1005.1 1004.8 0.6
06/06:00pm 31.0 35.0 24.4 68 4.6 W 11 20 6 11 1004.7 1004.4 0.6
06/05:30pm 30.8 33.2 23.7 66 4.9 W 17 26 9 14 1004.7 1004.4 0.6
06/05:00pm 31.1 33.9 23.7 64 5.1 W 15 26 8 14 1004.4 1004.1 0.4
06/04:30pm 30.6 33.7 23.5 66 4.9 W 13 26 7 14 1004.3 1004.0 0.4
06/04:00pm 31.1 34.3 23.7 64 5.1 WNW 13 22 7 12 1004.3 1004.0 0.4
06/03:30pm 29.9 33.2 23.8 70 4.2 WNW 13 22 7 12 1004.6 1004.3 0.4
06/03:00pm 30.3 34.1 24.7 72 3.9 W 13 20 7 11 1005.0 1004.7 0.4
06/02:30pm 29.9 34.7 24.5 73 3.8 NW 7 15 4 8 1005.1 1004.8 0.4
06/02:00pm 30.0 34.1 24.6 73 3.8 WNW 11 20 6 11 1005.1 1004.8 0.2
06/01:30pm 29.5 34.5 23.9 72 3.9 NW 4 7 2 4 1005.4 1005.1 0.2
06/01:00pm 29.2 34.1 24.3 75 3.4 WNW 6 11 3 6 1006.0 1005.7 0.2
06/12:30pm 28.2 32.6 23.8 77 3.0 W 7 11 4 6 1006.4 1006.1 0.2
06/12:00pm 27.2 30.8 24.3 84 2.0 W 13 22 7 12 1006.7 1006.4 0.2
06/11:30am 26.8 29.2 23.7 83 2.1 W 17 26 9 14 1006.7 1006.4 0.2
06/11:00am 30.4 34.9 25.2 74 3.7 NW 11 17 6 9 1006.7 1006.4 0.2
06/10:30am 29.9 34.5 24.8 74 3.6 WNW 9 13 5 7 1006.6 1006.3 0.0
06/10:00am 29.7 35.0 25.0 76 3.3 WSW 6 11 3 6 1006.9 1006.6 0.0
06/09:30am 28.4 34.6 24.6 80 2.7 CALM 0 0 0 0 1006.9 1006.6 0.0
06/09:00am 28.0 32.6 24.8 83 2.2 N 9 15 5 8 1006.8 1006.5 1.4
06/08:30am 27.5 32.7 25.1 87 1.7 NNE 7 11 4 6 1006.5 1006.2 1.4
06/08:00am 26.9 31.7 25.1 90 1.3 NNE 9 13 5 7 1006.2 1005.9 1.4
06/07:30am 26.1 30.9 24.5 91 1.1 NNE 7 13 4 7 1005.8 1005.5 1.4
06/07:00am 25.6 31.4 24.0 91 1.1 CALM 0 0 0 0 1005.6 1005.3 1.2
06/06:30am 25.4 30.1 24.0 92 1.0 NE 6 9 3 5 1005.0 1004.7 1.2
06/06:00am 25.3 31.0 23.7 91 1.1 CALM 0 0 0 0 1004.6 1004.3 1.2
06/05:30am 25.7 30.4 23.4 87 1.6 W 4 9 2 5 1004.4 1004.1 1.2
06/05:00am 25.8 30.1 23.7 88 1.4 W 7 13 4 7 1004.1 1003.8 1.2
06/04:30am 26.1 30.8 24.0 88 1.4 NNW 6 9 3 5 1004.5 1004.2 1.2
06/04:00am 26.5 31.3 25.1 92 1.0 N 9 13 5 7 1004.4 1004.1 1.2
06/03:30am 26.7 33.1 25.5 93 0.8 SSW 2 7 1 4 1004.3 1004.0 1.2
06/03:00am 26.6 33.3 25.4 93 0.8 CALM 0 0 0 0 1004.3 1004.0 1.2
06/02:30am 26.7 32.8 25.7 94 0.7 NNW 4 9 2 5 1004.2 1003.9 1.0
06/02:00am 26.7 33.6 25.7 94 0.7 CALM 0 0 0 0 1004.2 1003.9 1.0
06/01:30am 26.7 33.7 25.8 95 0.6 CALM 0 0 0 0 1004.9 1004.6 1.0
06/01:00am 26.7 33.6 25.7 94 0.7 CALM 0 0 0 0 1005.3 1005.0 1.0
06/12:30am 26.8 33.8 25.8 94 0.7 CALM 0 0 0 0 1005.7 1005.4 1.0
06/12:00am 26.8 33.8 25.8 94 0.7 CALM 0 0 0 0 1005.8 1005.5 1.0
 
Date/Time
EST
Temp
°C
App
Temp
°C
Dew
Point
Rel
Hum
%
Delta-T
°C
Wind Press
QNH
hPa
Press
MSL
hPa
Rain
since 9 am
mm
Dir
 
Spd
km/h
Gust
km/h
Spd
kts
Gust
kts
05/11:30pm 27.0 34.0 25.8 93 0.8 CALM 0 0 0 0 1006.2 1005.9 1.0
05/11:00pm 26.9 33.7 25.5 92 1.0 CALM 0 0 0 0 1006.1 1005.8 0.8
05/10:30pm 27.1 34.0 25.7 92 1.0 CALM 0 0 0 0 1006.0 1005.7 0.8
05/10:00pm 27.4 34.5 26.0 92 1.0 CALM 0 0 0 0 1006.2 1005.9 0.8
05/09:30pm 27.5 34.7 26.1 92 1.0 CALM 0 0 0 0 1006.2 1005.9 0.8
05/09:00pm 27.6 34.8 26.2 92 1.0 CALM 0 0 0 0 1005.9 1005.6 0.8
05/08:30pm 27.5 34.5 25.9 91 1.1 CALM 0 0 0 0 1005.5 1005.2 0.8
05/08:00pm 27.6 34.4 25.6 89 1.4 CALM 0 0 0 0 1004.6 1004.3 0.8
05/07:30pm 27.6 33.7 25.6 89 1.4 WNW 4 9 2 5 1004.2 1003.9 0.8
05/07:00pm 27.9 33.9 25.5 87 1.7 WNW 4 7 2 4 1004.0 1003.7 0.6
05/06:30pm 28.9 34.5 25.7 83 2.3 NW 7 11 4 6 1003.3 1003.0 0.6
05/06:00pm 29.2 35.8 25.8 82 2.4 NW 2 9 1 5 1003.4 1003.1 0.6
05/05:30pm 29.4 33.9 25.2 78 3.0 WNW 11 22 6 12 1003.3 1003.0 0.6
05/05:00pm 30.1 34.8 25.6 77 3.2 W 11 20 6 11 1003.0 1002.7 0.6
05/04:30pm 30.6 33.9 24.5 70 4.3 W 15 24 8 13 1002.7 1002.4 0.6
05/04:00pm 30.6 33.8 25.0 72 4.0 WSW 17 30 9 16 1002.7 1002.4 0.4
05/03:30pm 30.6 36.3 26.5 79 2.9 WNW 9 20 5 11 1003.2 1002.9 0.4
05/03:00pm 28.4 34.4 26.0 87 1.7 NNW 6 9 3 5 1003.5 1003.2 0.4
05/02:30pm 27.7 30.0 23.5 78 2.9 NW 17 35 9 19 1004.1 1003.8 0.4
05/02:00pm 31.8 34.5 24.1 63 5.4 WNW 17 30 9 16 1004.4 1004.1 0.4
05/01:30pm 31.4 34.7 24.5 67 4.8 NW 15 24 8 13 1004.4 1004.1 0.4
05/01:00pm 31.0 35.6 25.4 72 4.0 WNW 11 20 6 11 1004.8 1004.5 0.2
05/12:30pm 31.3 35.6 24.9 69 4.5 NW 11 20 6 11 1005.0 1004.7 0.2
05/12:00pm 32.0 37.2 26.3 72 4.1 WNW 11 22 6 12 1005.4 1005.1 0.2
05/11:30am 30.3 34.9 25.4 75 3.5 WNW 11 17 6 9 1005.6 1005.3 0.2
05/11:00am 29.9 34.3 25.6 78 3.1 WNW 13 24 7 13 1006.2 1005.9 0.2
05/10:30am 29.1 34.0 25.3 80 2.7 NW 9 17 5 9 1006.2 1005.9 0.0
05/10:00am 28.5 34.0 26.1 87 1.7 WNW 9 17 5 9 1006.6 1006.3 0.0
05/09:30am 27.0 33.6 25.2 90 1.3 CALM 0 7 0 4 1007.2 1006.9 0.0
05/09:00am 26.3 32.8 25.1 93 0.8 CALM 0 4 0 2 1007.0 1006.7 1.6
05/08:30am 25.5 29.7 24.1 92 1.0 WSW 9 17 5 9 1006.7 1006.4 1.6
05/08:00am 26.8 31.2 24.5 87 1.6 WNW 9 20 5 11 1006.2 1005.9 1.6
05/07:30am 26.9 32.8 25.9 94 0.7 NNE 6 9 3 5 1005.6 1005.3 1.4
05/07:00am 26.4 32.8 25.5 95 0.6 NNE 2 7 1 4 1005.3 1005.0 1.4
05/06:30am 26.1 32.6 25.1 94 0.7 CALM 0 0 0 0 1005.2 1004.9 1.4
05/06:00am 26.2 32.8 25.2 94 0.7 CALM 0 0 0 0 1004.6 1004.3 1.4
05/05:30am 26.3 32.9 25.3 94 0.7 CALM 0 0 0 0 1004.2 1003.9 1.4
05/05:00am 26.4 32.0 25.4 94 0.7 N 6 7 3 4 1004.1 1003.8 1.4
05/04:30am 26.4 33.2 25.5 95 0.6 CALM 0 0 0 0 1004.3 1004.0 1.4
05/04:00am 26.4 33.1 25.4 94 0.7 CALM 0 0 0 0 1004.1 1003.8 1.4
05/03:30am 26.5 33.1 25.3 93 0.8 CALM 0 0 0 0 1004.0 1003.7 1.2
05/03:00am 26.6 32.2 25.4 93 0.8 N 6 7 3 4 1004.3 1004.0 1.2
05/02:30am 26.8 32.3 25.6 93 0.8 NNW 7 11 4 6 1004.5 1004.2 1.2
05/02:00am 26.9 32.8 25.9 94 0.7 NNW 6 9 3 5 1004.7 1004.4 1.2
05/01:30am 27.0 34.1 26.0 94 0.7 CALM 0 0 0 0 1005.2 1004.9 1.2
05/01:00am 27.1 33.8 25.9 93 0.9 NW 2 9 1 5 1005.5 1005.2 1.2
05/12:30am 26.9 33.4 25.7 93 0.8 N 2 7 1 4 1005.7 1005.4 1.2
05/12:00am 26.9 32.8 25.9 94 0.7 N 6 9 3 5 1006.2 1005.9 1.0
 
Date/Time
EST
Temp
°C
App
Temp
°C
Dew
Point
Rel
Hum
%
Delta-T
°C
Wind Press
QNH
hPa
Press
MSL
hPa
Rain
since 9 am
mm
Dir
 
Spd
km/h
Gust
km/h
Spd
kts
Gust
kts
04/11:30pm 26.8 32.6 25.8 94 0.7 NNE 6 9 3 5 1006.3 1006.0 1.0
04/11:00pm 26.9 32.6 25.9 94 0.7 N 7 9 4 5 1006.6 1006.3 1.0
04/10:30pm 27.0 33.3 26.0 94 0.7 N 4 7 2 4 1007.0 1006.7 1.0
04/10:00pm 27.0 34.0 25.8 93 0.8 CALM 0 0 0 0 1007.1 1006.8 1.0
04/09:30pm 27.0 32.6 25.8 93 0.8 N 7 9 4 5 1006.8 1006.5 1.0
04/09:00pm 27.1 33.2 25.7 92 1.0 NNE 4 9 2 5 1006.6 1006.3 1.0
04/08:30pm 27.3 33.9 25.3 89 1.4 CALM 0 0 0 0 1006.6 1006.3 0.8
04/08:00pm 27.4 34.2 25.6 90 1.3 CALM 0 0 0 0 1006.5 1006.2 0.8
04/07:30pm 27.4 34.1 25.4 89 1.4 CALM 0 0 0 0 1006.1 1005.8 0.8
04/07:00pm 27.6 33.7 25.0 86 1.8 NNE 2 6 1 3 1005.9 1005.6 0.8
04/06:30pm 27.8 32.5 25.0 85 2.0 NNW 9 13 5 7 1005.5 1005.2 0.8
04/06:00pm 28.2 32.9 25.0 83 2.2 NW 9 13 5 7 1005.2 1004.9 0.8
04/05:30pm 27.6 31.5 24.8 85 2.0 NW 13 24 7 13 1005.0 1004.7 0.6
04/05:00pm 30.3 34.7 25.1 73 3.7 WNW 11 20 6 11 1004.8 1004.5 0.6
04/04:30pm 31.9 35.6 24.5 65 5.2 WNW 13 28 7 15 1004.6 1004.3 0.6
04/04:00pm 31.6 36.1 25.2 69 4.5 WNW 11 20 6 11 1004.7 1004.4 0.6

Other Formats:

Comma delimited format used in spreadsheet applications
http://www.bom.gov.au/fwo/IDQ60801/IDQ60801.94171.axf

JavaScript Object Notation format (JSON) in row-major order
http://www.bom.gov.au/fwo/IDQ60801/IDQ60801.94171.json